createdAt,value
2022-07-27T00:01:54.325Z,99459.56
2022-07-27T00:04:24.343Z,99465.38
2022-07-27T00:06:51.716Z,99465.16
2022-07-27T00:09:18.872Z,99461.22
2022-07-27T00:11:46.351Z,99471.56
2022-07-27T00:14:14.330Z,99476.59
2022-07-27T00:16:41.652Z,99470.84
2022-07-27T00:19:09.595Z,99478.25
2022-07-27T00:21:42.397Z,99477.06
2022-07-27T00:24:12.406Z,99473.22
2022-07-27T00:26:39.546Z,99480.78
2022-07-27T00:29:07.396Z,99477.50
2022-07-27T00:31:35.242Z,99467.53
2022-07-27T00:34:02.237Z,99464.88
2022-07-27T00:36:29.068Z,99466.53
2022-07-27T00:38:57.243Z,99467.53
2022-07-27T00:41:24.384Z,99464.88
2022-07-27T00:43:54.465Z,99474.75
2022-07-27T00:46:22.078Z,99466.00
2022-07-27T00:48:51.192Z,99467.63
2022-07-27T00:51:21.540Z,99462.72
2022-07-27T00:53:51.435Z,99459.06
2022-07-27T00:56:20.675Z,99462.34
2022-07-27T00:58:51.851Z,99457.66
2022-07-27T01:01:19.798Z,99449.53
2022-07-27T01:03:47.939Z,99454.19
2022-07-27T01:06:16.502Z,99456.13
2022-07-27T01:08:53.938Z,99448.53
2022-07-27T01:11:22.808Z,99451.41
2022-07-27T01:13:50.050Z,99452.38
2022-07-27T01:16:17.134Z,99446.28
2022-07-27T01:18:44.273Z,99451.59
2022-07-27T01:21:11.144Z,99458.06
2022-07-27T01:23:39.762Z,99459.63
2022-07-27T01:26:06.588Z,99453.97
2022-07-27T01:28:36.868Z,99451.50
2022-07-27T01:31:03.814Z,99455.34
2022-07-27T01:33:30.939Z,99451.22
2022-07-27T01:35:58.428Z,99441.47
2022-07-27T01:38:25.718Z,99446.22
2022-07-27T01:40:55.180Z,99447.41
2022-07-27T01:43:22.734Z,99449.44
2022-07-27T01:45:50.033Z,99453.88
2022-07-27T01:48:17.243Z,99450.41
2022-07-27T01:50:45.474Z,99459.53
2022-07-27T01:53:14.643Z,99449.28
2022-07-27T01:55:42.112Z,99451.66
2022-07-27T01:58:10.614Z,99450.19
2022-07-27T02:00:38.661Z,99438.06
2022-07-27T02:03:08.694Z,99433.84
2022-07-27T02:05:37.166Z,99432.19
2022-07-27T02:08:06.282Z,99427.53
2022-07-27T02:10:34.423Z,99425.25
2022-07-27T02:13:22.413Z,99426.91
2022-07-27T02:15:51.234Z,99423.69
2022-07-27T02:18:33.573Z,99428.81
2022-07-27T02:21:05.267Z,99421.69
2022-07-27T02:23:32.375Z,99416.13
2022-07-27T02:25:59.412Z,99421.13
2022-07-27T02:28:28.719Z,99423.41
2022-07-27T02:30:57.172Z,99422.13
2022-07-27T02:33:24.175Z,99424.78
2022-07-27T02:35:51.657Z,99416.19
2022-07-27T02:38:18.750Z,99419.22
2022-07-27T02:40:48.843Z,99415.91
2022-07-27T02:43:15.846Z,99421.19
2022-07-27T02:45:43.089Z,99425.03
2022-07-27T02:48:15.441Z,99427.41
2022-07-27T02:50:42.331Z,99434.50
2022-07-27T02:53:09.150Z,99419.34
2022-07-27T02:55:37.840Z,99420.19
2022-07-27T02:58:04.759Z,99421.00
2022-07-27T03:00:32.032Z,99425.47
2022-07-27T03:02:59.510Z,99430.28
2022-07-27T03:05:28.291Z,99428.28
2022-07-27T03:07:55.167Z,99424.13
2022-07-27T03:10:22.056Z,99423.31
2022-07-27T03:12:49.032Z,99421.97
2022-07-27T03:15:16.039Z,99423.44
2022-07-27T03:17:42.901Z,99427.59
2022-07-27T03:20:14.428Z,99430.28
2022-07-27T03:22:44.966Z,99439.38
2022-07-27T03:25:12.075Z,99443.06
2022-07-27T03:27:39.116Z,99441.91
2022-07-27T03:30:08.398Z,99443.44
2022-07-27T03:32:35.400Z,99442.69
2022-07-27T03:35:02.413Z,99438.88
2022-07-27T03:37:29.553Z,99441.81
2022-07-27T03:39:57.868Z,99442.16
2022-07-27T03:42:25.179Z,99439.66
2022-07-27T03:44:52.414Z,99450.75
2022-07-27T03:47:19.241Z,99453.66
2022-07-27T03:49:46.366Z,99446.41
2022-07-27T03:52:17.715Z,99442.91
2022-07-27T03:54:45.875Z,99441.09
2022-07-27T03:57:14.603Z,99448.38
2022-07-27T04:00:03.410Z,99444.75
2022-07-27T04:02:31.764Z,99435.09
2022-07-27T04:04:59.179Z,99442.03
2022-07-27T04:07:26.080Z,99443.69
2022-07-27T04:09:52.964Z,99448.03
2022-07-27T04:12:21.593Z,99445.03
2022-07-27T04:14:48.501Z,99454.63
2022-07-27T04:17:54.997Z,99452.63
2022-07-27T04:20:03.688Z,99451.69
2022-07-27T04:22:30.820Z,99464.53
2022-07-27T04:24:58.258Z,99455.09
2022-07-27T04:27:26.955Z,99459.88
2022-07-27T04:29:53.780Z,99468.28
2022-07-27T04:32:20.575Z,99470.06
2022-07-27T04:34:47.444Z,99463.34
2022-07-27T04:37:14.336Z,99470.28
2022-07-27T04:39:41.933Z,99472.44
2022-07-27T04:42:09.356Z,99478.91
2022-07-27T04:44:37.996Z,99474.94
2022-07-27T04:47:05.051Z,99480.97
2022-07-27T04:49:32.173Z,99474.97
2022-07-27T04:52:01.050Z,99479.09
2022-07-27T04:54:27.957Z,99476.25
2022-07-27T04:56:55.144Z,99480.72
2022-07-27T04:59:22.169Z,99487.19
2022-07-27T05:01:50.991Z,99498.63
2022-07-27T05:04:17.933Z,99483.53
2022-07-27T05:06:45.706Z,99491.31
2022-07-27T05:09:13.383Z,99496.47
2022-07-27T05:11:40.704Z,99494.59
2022-07-27T05:14:17.618Z,99500.22
2022-07-27T05:16:48.006Z,99492.16
2022-07-27T05:19:16.344Z,99499.69
2022-07-27T05:21:43.818Z,99508.44
2022-07-27T05:24:11.135Z,99515.66
2022-07-27T05:26:38.458Z,99513.28
2022-07-27T05:29:05.375Z,99510.75
2022-07-27T05:31:32.419Z,99518.16
2022-07-27T05:33:59.473Z,99522.41
2022-07-27T05:36:27.981Z,99530.41
2022-07-27T05:38:55.076Z,99536.75
2022-07-27T05:41:23.672Z,99545.84
2022-07-27T05:43:50.868Z,99540.03
2022-07-27T05:46:18.179Z,99536.47
2022-07-27T05:48:46.031Z,99542.34
2022-07-27T05:51:12.985Z,99537.38
2022-07-27T05:53:41.695Z,99542.38
2022-07-27T05:56:08.730Z,99544.13
2022-07-27T05:58:36.087Z,99550.63
2022-07-27T06:01:03.415Z,99551.84
2022-07-27T06:03:30.342Z,99561.75
2022-07-27T06:05:58.349Z,99558.22
2022-07-27T06:08:26.359Z,99556.84
2022-07-27T06:10:54.806Z,99554.75
2022-07-27T06:13:26.639Z,99561.94
2022-07-27T06:15:55.098Z,99560.56
2022-07-27T06:18:22.486Z,99559.19
2022-07-27T06:20:49.246Z,99564.78
2022-07-27T06:23:16.554Z,99568.19
2022-07-27T06:25:43.679Z,99569.47
2022-07-27T06:28:11.948Z,99564.50
2022-07-27T06:30:39.000Z,99564.56
2022-07-27T06:33:06.175Z,99557.00
2022-07-27T06:35:34.364Z,99548.75
2022-07-27T06:38:02.173Z,99546.69
2022-07-27T06:40:30.107Z,99548.34
2022-07-27T06:42:57.131Z,99540.44
2022-07-27T06:45:27.213Z,99547.09
2022-07-27T06:47:54.270Z,99540.44
2022-07-27T06:50:21.556Z,99537.31
2022-07-27T06:52:49.031Z,99540.47
2022-07-27T06:55:16.320Z,99535.13
2022-07-27T06:57:43.426Z,99533.75
2022-07-27T07:00:12.490Z,99540.16
2022-07-27T07:02:52.264Z,99540.56
2022-07-27T07:05:19.184Z,99543.53
2022-07-27T07:07:46.212Z,99552.69
2022-07-27T07:10:13.816Z,99551.75
2022-07-27T07:12:40.979Z,99547.59
2022-07-27T07:15:09.766Z,99552.34
2022-07-27T07:17:36.699Z,99541.88
2022-07-27T07:20:08.141Z,99547.09
2022-07-27T07:22:35.475Z,99555.28
2022-07-27T07:25:03.526Z,99547.75
2022-07-27T07:27:30.945Z,99552.34
2022-07-27T07:29:57.782Z,99553.97
2022-07-27T07:32:26.135Z,99550.22
2022-07-27T07:34:55.911Z,99549.28
2022-07-27T07:37:24.169Z,99548.91
2022-07-27T07:40:24.876Z,99548.50
2022-07-27T07:42:52.130Z,99551.84
2022-07-27T07:45:20.365Z,99547.47
2022-07-27T07:47:47.343Z,99553.03
2022-07-27T07:50:14.359Z,99554.66
2022-07-27T07:52:42.830Z,99549.09
2022-07-27T07:55:11.105Z,99551.09
2022-07-27T07:57:38.663Z,99547.47
2022-07-27T08:00:08.387Z,99551.03
2022-07-27T08:02:47.113Z,99555.00
2022-07-27T08:05:15.373Z,99552.75
2022-07-27T08:07:45.502Z,99558.53
2022-07-27T08:10:15.056Z,99559.44
2022-07-27T08:12:45.520Z,99563.13
2022-07-27T08:15:15.365Z,99561.25
2022-07-27T08:17:43.118Z,99572.19
2022-07-27T08:20:12.180Z,99568.09
2022-07-27T08:22:39.544Z,99567.00
2022-07-27T08:25:10.609Z,99563.88
2022-07-27T08:27:40.293Z,99567.41
2022-07-27T08:30:10.419Z,99547.31
2022-07-27T08:32:53.868Z,99552.00
2022-07-27T08:35:21.686Z,99557.16
2022-07-27T08:37:49.154Z,99557.75
2022-07-27T08:43:07.572Z,99561.19
2022-07-27T08:45:35.788Z,99559.41
2022-07-27T08:48:03.470Z,99543.25
2022-07-27T08:50:30.983Z,99554.09
2022-07-27T08:53:03.487Z,99555.81
2022-07-27T08:55:35.881Z,99552.34
2022-07-27T08:58:04.190Z,99561.69
2022-07-27T09:00:32.943Z,99548.31
2022-07-27T09:03:00.789Z,99552.19
2022-07-27T09:05:37.313Z,99544.47
2022-07-27T09:08:14.020Z,99558.19
2022-07-27T09:10:43.480Z,99553.38
2022-07-27T09:13:20.609Z,99557.41
2022-07-27T09:16:16.444Z,99546.69
2022-07-27T09:18:39.109Z,99542.66
2022-07-27T09:21:15.794Z,99547.84
2022-07-27T09:23:48.403Z,99542.97
2022-07-27T09:26:35.326Z,99548.66
2022-07-27T09:29:05.302Z,99541.84
2022-07-27T09:31:39.987Z,99544.75
2022-07-27T09:34:07.228Z,99545.34
2022-07-27T09:36:49.964Z,99536.91
2022-07-27T09:39:20.430Z,99529.06
2022-07-27T09:41:51.954Z,99530.03
2022-07-27T09:44:34.811Z,99530.41
2022-07-27T09:47:22.132Z,99523.78
2022-07-27T09:49:49.163Z,99527.31
2022-07-27T09:52:23.935Z,99525.63
2022-07-27T09:54:51.388Z,99532.25
2022-07-27T09:57:19.838Z,99535.03
2022-07-27T09:59:47.379Z,99534.13
2022-07-27T10:02:15.072Z,99538.44
2022-07-27T10:04:43.866Z,99539.84
2022-07-27T10:07:13.920Z,99546.81
2022-07-27T10:09:41.088Z,99552.31
2022-07-27T10:12:09.276Z,99550.34
2022-07-27T10:14:37.777Z,99546.69
2022-07-27T10:17:07.325Z,99537.31
2022-07-27T10:19:45.148Z,99536.06
2022-07-27T10:22:13.089Z,99529.34
2022-07-27T10:24:40.209Z,99529.91
2022-07-27T10:27:20.823Z,99540.34
2022-07-27T10:29:51.175Z,99531.78
2022-07-27T10:32:24.560Z,99537.72
2022-07-27T10:34:51.823Z,99540.81
2022-07-27T10:37:26.557Z,99541.13
2022-07-27T10:39:56.856Z,99538.91
2022-07-27T10:42:28.340Z,99533.94
2022-07-27T10:45:05.251Z,99544.72
2022-07-27T10:47:40.786Z,99536.22
2022-07-27T10:50:29.222Z,99540.06
2022-07-27T10:53:05.368Z,99538.31
2022-07-27T10:55:47.444Z,99534.22
2022-07-27T10:58:47.384Z,99540.38
2022-07-27T11:01:18.750Z,99537.66
2022-07-27T11:03:46.921Z,99537.44
2022-07-27T11:06:33.104Z,99542.97
2022-07-27T11:10:00.034Z,99537.66
2022-07-27T11:11:53.308Z,99531.88
2022-07-27T11:14:30.466Z,99528.47
2022-07-27T11:17:32.244Z,99522.16
2022-07-27T11:19:52.963Z,99529.69
2022-07-27T11:22:50.154Z,99529.28
2022-07-27T11:25:17.144Z,99522.59
2022-07-27T11:27:48.833Z,99519.16
2022-07-27T11:30:24.476Z,99523.88
2022-07-27T11:32:53.389Z,99514.19
2022-07-27T11:35:20.692Z,99514.59
2022-07-27T11:37:59.898Z,99517.56
2022-07-27T11:43:37.132Z,99525.69
2022-07-27T11:46:23.673Z,99517.53
2022-07-27T11:49:06.748Z,99516.94
2022-07-27T11:51:46.496Z,99512.38
2022-07-27T11:54:20.343Z,99503.94
2022-07-27T11:56:50.917Z,99510.84
2022-07-27T11:59:20.383Z,99498.47
2022-07-27T12:01:51.194Z,99498.09
2022-07-27T12:04:26.391Z,99500.44
2022-07-27T12:07:08.319Z,99495.78
2022-07-27T12:09:39.182Z,99503.25
2022-07-27T12:12:13.654Z,99498.38
2022-07-27T12:14:43.803Z,99499.56
2022-07-27T12:17:28.750Z,99494.44
2022-07-27T12:20:07.459Z,99487.63
2022-07-27T12:22:38.091Z,99494.50
2022-07-27T12:25:25.818Z,99497.91
2022-07-27T12:27:55.980Z,99501.41
2022-07-27T12:30:31.671Z,99498.72
2022-07-27T12:33:32.748Z,99501.50
2022-07-27T12:36:04.035Z,99489.53
2022-07-27T12:38:38.175Z,99498.47
2022-07-27T12:41:05.344Z,99505.25
2022-07-27T12:43:32.938Z,99491.72
2022-07-27T12:46:11.639Z,99489.94
2022-07-27T12:48:41.655Z,99487.34
2022-07-27T12:51:12.087Z,99483.75
2022-07-27T12:53:39.791Z,99464.06
2022-07-27T12:56:31.101Z,99492.78
2022-07-27T12:59:00.150Z,99489.56
2022-07-27T13:01:31.404Z,99490.47
2022-07-27T13:03:58.476Z,99490.84
2022-07-27T13:06:26.782Z,99473.50
2022-07-27T13:08:53.656Z,99474.91
2022-07-27T13:11:20.706Z,99482.94
2022-07-27T13:13:47.561Z,99483.22
2022-07-27T13:16:14.715Z,99486.53
2022-07-27T13:18:41.687Z,99471.50
2022-07-27T13:21:08.604Z,99484.03
2022-07-27T13:23:37.229Z,99473.63
2022-07-27T13:26:04.768Z,99470.91
2022-07-27T13:28:31.783Z,99465.69
2022-07-27T13:31:03.053Z,99461.88
2022-07-27T13:33:30.585Z,99452.66
2022-07-27T13:36:00.427Z,99458.16
2022-07-27T13:38:28.500Z,99457.56
2022-07-27T13:40:56.913Z,99460.75
2022-07-27T13:43:24.900Z,99458.78
2022-07-27T13:45:52.208Z,99446.72
2022-07-27T13:48:46.045Z,99451.66
2022-07-27T13:51:13.623Z,99454.53
2022-07-27T13:53:40.548Z,99445.25
2022-07-27T13:56:08.973Z,99453.03
2022-07-27T13:58:35.991Z,99457.00
2022-07-27T14:01:07.483Z,99458.28
2022-07-27T14:03:35.238Z,99446.91
2022-07-27T14:06:02.380Z,99454.47
2022-07-27T14:08:29.915Z,99454.25
2022-07-27T14:10:57.026Z,99451.75
2022-07-27T14:13:25.445Z,99459.75
2022-07-27T14:15:54.037Z,99460.97
2022-07-27T14:18:25.238Z,99447.28
2022-07-27T14:20:52.613Z,99447.34
2022-07-27T14:23:19.962Z,99441.44
2022-07-27T14:25:47.371Z,99437.09
2022-07-27T14:28:14.460Z,99436.91
2022-07-27T14:30:42.751Z,99445.16
2022-07-27T14:33:09.693Z,99451.22
2022-07-27T14:35:40.543Z,99441.06
2022-07-27T14:38:08.399Z,99440.47
2022-07-27T14:40:35.735Z,99448.22
2022-07-27T14:43:03.033Z,99448.41
2022-07-27T14:45:44.025Z,99446.13
2022-07-27T14:48:20.358Z,99442.31
2022-07-27T14:50:52.408Z,99439.31
2022-07-27T14:53:21.355Z,99439.88
2022-07-27T14:55:50.713Z,99450.47
2022-07-27T14:58:17.964Z,99444.06
2022-07-27T15:00:45.426Z,99446.72
2022-07-27T15:03:14.622Z,99442.84
2022-07-27T15:05:50.008Z,99442.84
2022-07-27T15:08:25.572Z,99436.78
2022-07-27T15:10:52.674Z,99439.03
2022-07-27T15:13:19.845Z,99447.44
2022-07-27T15:15:46.927Z,99447.81
2022-07-27T15:18:15.349Z,99441.88
2022-07-27T15:20:42.242Z,99435.03
2022-07-27T15:23:09.089Z,99441.44
2022-07-27T15:25:36.169Z,99435.91
2022-07-27T15:28:03.938Z,99433.22
2022-07-27T15:30:37.881Z,99426.25
2022-07-27T15:33:05.812Z,99425.63
2022-07-27T15:35:34.729Z,99427.56
2022-07-27T15:38:01.982Z,99427.03
2022-07-27T15:40:29.441Z,99425.44
2022-07-27T15:42:56.423Z,99429.31
2022-07-27T15:45:23.404Z,99430.13
2022-07-27T15:47:52.850Z,99424.38
2022-07-27T15:50:20.566Z,99429.78
2022-07-27T15:52:49.000Z,99434.03
2022-07-27T15:55:15.881Z,99435.66
2022-07-27T15:57:43.364Z,99431.44
2022-07-27T16:00:12.383Z,99420.31
2022-07-27T16:02:39.708Z,99424.09
2022-07-27T16:05:07.062Z,99424.91
2022-07-27T16:07:41.419Z,99424.03
2022-07-27T16:10:10.656Z,99415.28
2022-07-27T16:12:38.507Z,99409.41
2022-07-27T16:15:07.784Z,99411.41
2022-07-27T16:17:34.648Z,99404.81
2022-07-27T16:20:01.534Z,99410.97
2022-07-27T16:22:28.912Z,99401.16
2022-07-27T16:24:55.754Z,99403.16
2022-07-27T16:27:24.266Z,99397.66
2022-07-27T16:29:51.805Z,99398.69
2022-07-27T16:32:18.793Z,99394.75
2022-07-27T16:34:45.859Z,99392.25
2022-07-27T16:37:12.754Z,99390.38
2022-07-27T16:39:39.841Z,99387.44
2022-07-27T16:42:07.035Z,99396.47
2022-07-27T16:44:35.178Z,99394.47
2022-07-27T16:47:02.211Z,99400.44
2022-07-27T16:49:33.641Z,99392.41
2022-07-27T16:52:04.739Z,99403.53
2022-07-27T16:54:36.982Z,99392.50
2022-07-27T16:57:06.817Z,99393.03
2022-07-27T16:59:34.977Z,99394.91
2022-07-27T17:02:02.300Z,99391.06
2022-07-27T17:04:29.605Z,99395.22
2022-07-27T17:06:56.892Z,99396.19
2022-07-27T17:09:23.797Z,99389.03
2022-07-27T17:11:50.877Z,99394.59
2022-07-27T17:14:20.891Z,99392.19
2022-07-27T17:16:52.047Z,99393.47
2022-07-27T17:19:19.937Z,99394.09
2022-07-27T17:21:47.044Z,99388.50
2022-07-27T17:24:14.056Z,99391.56
2022-07-27T17:26:41.231Z,99388.75
2022-07-27T17:29:08.078Z,99385.25
2022-07-27T17:31:35.722Z,99391.25
2022-07-27T17:34:04.407Z,99386.78
2022-07-27T17:36:31.300Z,99391.28
2022-07-27T17:38:58.354Z,99386.59
2022-07-27T17:41:25.600Z,99380.47
2022-07-27T17:43:54.039Z,99387.63
2022-07-27T17:46:21.703Z,99402.63
2022-07-27T17:48:49.075Z,99393.38
2022-07-27T17:51:17.721Z,99388.47
2022-07-27T17:53:44.972Z,99394.81
2022-07-27T17:56:12.505Z,99392.75
2022-07-27T17:58:40.431Z,99393.41
2022-07-27T18:01:07.314Z,99388.72
2022-07-27T18:03:34.889Z,99393.25
2022-07-27T18:06:02.378Z,99392.81
2022-07-27T18:08:30.901Z,99403.28
2022-07-27T18:10:57.942Z,99402.28
2022-07-27T18:13:37.862Z,99411.13
2022-07-27T18:16:09.684Z,99409.69
2022-07-27T18:18:37.292Z,99412.16
2022-07-27T18:21:05.072Z,99416.69
2022-07-27T18:23:34.675Z,99412.19
2022-07-27T18:26:02.681Z,99412.59
2022-07-27T18:28:31.611Z,99417.94
2022-07-27T18:31:00.573Z,99416.09
2022-07-27T18:33:36.459Z,99416.50
2022-07-27T18:36:06.801Z,99419.78
2022-07-27T18:38:34.988Z,99417.94
2022-07-27T18:41:09.392Z,99422.44
2022-07-27T18:43:36.762Z,99424.06
2022-07-27T18:46:03.967Z,99423.25
2022-07-27T18:48:31.327Z,99417.13
2022-07-27T18:50:58.548Z,99426.31
2022-07-27T18:53:25.634Z,99427.72
2022-07-27T18:55:56.461Z,99427.94
2022-07-27T18:58:24.627Z,99427.28
2022-07-27T19:00:52.257Z,99429.31
2022-07-27T19:03:22.051Z,99431.38
2022-07-27T19:05:52.005Z,99434.84
2022-07-27T19:08:20.090Z,99436.47
2022-07-27T19:10:47.644Z,99447.31
2022-07-27T19:13:15.893Z,99441.97
2022-07-27T19:15:42.779Z,99456.94
2022-07-27T19:18:10.143Z,99455.47
2022-07-27T19:20:37.499Z,99466.13
2022-07-27T19:23:10.974Z,99459.75
2022-07-27T19:25:38.061Z,99471.03
2022-07-27T19:28:05.520Z,99470.59
2022-07-27T19:30:33.968Z,99471.81
2022-07-27T19:33:01.914Z,99461.56
2022-07-27T19:35:29.663Z,99460.28
2022-07-27T19:37:56.573Z,99474.78
2022-07-27T19:43:11.248Z,99471.03
2022-07-27T19:45:39.686Z,99487.19
2022-07-27T19:48:07.125Z,99493.53
2022-07-27T19:54:53.002Z,99480.56
2022-07-27T19:58:16.754Z,99483.16
2022-07-27T20:00:47.543Z,99488.69
2022-07-27T20:03:14.544Z,99494.38
2022-07-27T20:05:41.658Z,99493.09
2022-07-27T20:08:08.825Z,99491.75
2022-07-27T20:10:35.668Z,99501.09
2022-07-27T20:13:02.633Z,99502.50
2022-07-27T20:15:34.340Z,99499.31
2022-07-27T20:18:03.078Z,99499.59
2022-07-27T20:20:32.082Z,99493.63
2022-07-27T20:22:59.302Z,99494.28
2022-07-27T20:25:26.189Z,99490.63
2022-07-27T20:27:53.400Z,99489.28
2022-07-27T20:30:20.604Z,99478.34
2022-07-27T20:32:48.633Z,99488.16
2022-07-27T20:35:20.519Z,99491.38
2022-07-27T20:37:48.591Z,99477.31
2022-07-27T20:40:15.942Z,99470.47
2022-07-27T20:42:47.066Z,99489.47
2022-07-27T20:45:17.161Z,99493.91
2022-07-27T20:47:47.655Z,99494.66
2022-07-27T20:50:15.448Z,99498.31
2022-07-27T20:52:44.019Z,99506.28
2022-07-27T20:55:13.454Z,99504.81
2022-07-27T20:57:43.678Z,99508.28
2022-07-27T21:00:12.311Z,99499.50
2022-07-27T21:02:39.976Z,99502.91
2022-07-27T21:05:08.882Z,99497.97
2022-07-27T21:07:36.114Z,99498.16
2022-07-27T21:10:06.551Z,99500.81
2022-07-27T21:12:34.144Z,99497.53
2022-07-27T21:15:01.295Z,99500.81
2022-07-27T21:17:28.408Z,99509.47
2022-07-27T21:19:55.458Z,99506.84
2022-07-27T21:22:22.377Z,99505.59
2022-07-27T21:24:49.267Z,99512.44
2022-07-27T21:27:18.729Z,99512.09
2022-07-27T21:29:48.532Z,99512.44
2022-07-27T21:32:15.698Z,99511.16
2022-07-27T21:34:42.663Z,99510.09
2022-07-27T21:37:09.528Z,99507.91
2022-07-27T21:39:36.534Z,99508.06
2022-07-27T21:42:04.041Z,99506.59
2022-07-27T21:44:32.182Z,99505.41
2022-07-27T21:46:59.469Z,99511.38
2022-07-27T21:49:34.163Z,99505.69
2022-07-27T21:52:02.344Z,99508.16
2022-07-27T21:54:29.312Z,99507.72
2022-07-27T21:56:56.260Z,99504.22
2022-07-27T21:59:23.551Z,99504.63
2022-07-27T22:01:51.816Z,99513.38
2022-07-27T22:04:18.978Z,99508.28
2022-07-27T22:06:46.160Z,99507.53
2022-07-27T22:09:12.965Z,99509.91
2022-07-27T22:11:40.138Z,99511.56
2022-07-27T22:14:07.178Z,99512.38
2022-07-27T22:16:34.310Z,99503.16
2022-07-27T22:19:03.004Z,99505.81
2022-07-27T22:21:30.570Z,99508.53
2022-07-27T22:23:57.326Z,99506.06
2022-07-27T22:26:24.440Z,99502.75
2022-07-27T22:28:52.392Z,99502.75
2022-07-27T22:31:22.179Z,99507.88
2022-07-27T22:33:50.533Z,99512.56
2022-07-27T22:36:19.294Z,99512.91
2022-07-27T22:38:46.292Z,99516.34
2022-07-27T22:41:14.539Z,99518.16
2022-07-27T22:43:41.634Z,99511.84
2022-07-27T22:46:08.694Z,99508.75
2022-07-27T22:48:35.800Z,99519.03
2022-07-27T22:51:02.894Z,99519.59
2022-07-27T22:53:31.100Z,99519.59
2022-07-27T22:55:59.804Z,99524.25
2022-07-27T22:58:29.728Z,99528.72
2022-07-27T23:00:59.641Z,99522.78
2022-07-27T23:03:26.850Z,99518.47
2022-07-27T23:05:53.984Z,99533.88
2022-07-27T23:08:34.498Z,99536.06
2022-07-27T23:11:03.074Z,99520.72
2022-07-27T23:13:33.897Z,99531.31
2022-07-27T23:16:01.299Z,99524.22
2022-07-27T23:18:28.427Z,99524.38
2022-07-27T23:20:55.443Z,99522.16
2022-07-27T23:23:22.505Z,99524.25
2022-07-27T23:25:52.970Z,99521.53
2022-07-27T23:28:23.480Z,99526.16
2022-07-27T23:30:50.326Z,99524.63
2022-07-27T23:33:17.414Z,99526.09
2022-07-27T23:35:44.484Z,99520.81
2022-07-27T23:38:14.300Z,99525.72
2022-07-27T23:40:41.828Z,99523.44
2022-07-27T23:43:12.835Z,99525.09
2022-07-27T23:45:41.309Z,99527.56
2022-07-27T23:48:13.051Z,99524.25
2022-07-27T23:50:39.880Z,99521.06
2022-07-27T23:53:13.990Z,99516.78
2022-07-27T23:55:44.084Z,99517.44
2022-07-27T23:58:11.001Z,99516.50
